UAL2477 KEWR-KSTL
Flight info
| Callsign | UAL2477 |
|---|---|
| Flight time | 2h 2m |
| Altitude | 36000 |
| Route | ZIMMZ Q42 MIKYG Q480 AIR J110 VHP AARCH2 |
| Aircraft | A320/M-VGDW/C |
Departure
| Time | 2026-04-21 21:57 |
|---|---|
| Airport | Newark Liberty International Airport (KEWR) |
Arrival
| Time | 2026-04-21 23:59 |
|---|---|
| Airport | St. Louis Lambert International Airport (KSTL) |
| Time | Latitude | Longitude | Altitude | Speed | Heading |
|---|---|---|---|---|---|
| 2026-04-21 21:35 | 40.68303 | -74.18411 | 22 ft | 0 kts | 5° |
| 2026-04-21 21:36 | 40.68302 | -74.18411 | 22 ft | 0 kts | 5° |
| 2026-04-21 21:45 | 40.68301 | -74.18411 | 22 ft | 2 kts | 5° |
| 2026-04-21 21:45 | 40.68275 | -74.18414 | 22 ft | 4 kts | 5° |
| 2026-04-21 21:45 | 40.68251 | -74.18418 | 22 ft | 4 kts | 43° |
| 2026-04-21 21:46 | 40.68246 | -74.18436 | 22 ft | 4 kts | 95° |
| 2026-04-21 21:46 | 40.68248 | -74.18467 | 22 ft | 1 kts | 95° |
| 2026-04-21 21:48 | 40.68247 | -74.18452 | 22 ft | 3 kts | 95° |
| 2026-04-21 21:48 | 40.68245 | -74.18416 | 22 ft | 5 kts | 95° |
| 2026-04-21 21:49 | 40.68241 | -74.18359 | 24 ft | 8 kts | 95° |
| 2026-04-21 21:49 | 40.68236 | -74.18279 | 22 ft | 10 kts | 95° |
| 2026-04-21 21:49 | 40.68231 | -74.18193 | 22 ft | 7 kts | 89° |
| 2026-04-21 21:49 | 40.68234 | -74.18172 | 22 ft | 2 kts | 76° |
| 2026-04-21 21:50 | 40.68235 | -74.18167 | 22 ft | 0 kts | 76° |
| 2026-04-21 21:50 | 40.68235 | -74.18165 | 22 ft | 1 kts | 76° |
| 2026-04-21 21:50 | 40.68239 | -74.18132 | 22 ft | 6 kts | 91° |
| 2026-04-21 21:51 | 40.68236 | -74.18065 | 22 ft | 9 kts | 94° |
| 2026-04-21 21:51 | 40.68227 | -74.17976 | 23 ft | 11 kts | 109° |
| 2026-04-21 21:51 | 40.68191 | -74.17876 | 23 ft | 13 kts | 116° |
| 2026-04-21 21:51 | 40.68153 | -74.17773 | 22 ft | 7 kts | 116° |
| 2026-04-21 21:52 | 40.68164 | -74.17710 | 24 ft | 9 kts | 41° |
| 2026-04-21 21:52 | 40.68231 | -74.17665 | 22 ft | 13 kts | 26° |
| 2026-04-21 21:52 | 40.68328 | -74.17604 | 22 ft | 18 kts | 26° |
| 2026-04-21 21:52 | 40.68449 | -74.17526 | 24 ft | 21 kts | 26° |
| 2026-04-21 21:53 | 40.68587 | -74.17439 | 23 ft | 23 kts | 25° |
| 2026-04-21 21:53 | 40.68735 | -74.17344 | 23 ft | 25 kts | 26° |
| 2026-04-21 21:53 | 40.68897 | -74.17241 | 22 ft | 27 kts | 26° |
| 2026-04-21 21:53 | 40.69064 | -74.17135 | 22 ft | 27 kts | 26° |
| 2026-04-21 21:54 | 40.69227 | -74.17032 | 22 ft | 24 kts | 26° |
| 2026-04-21 21:54 | 40.69371 | -74.16940 | 22 ft | 24 kts | 25° |
| 2026-04-21 21:54 | 40.69525 | -74.16842 | 22 ft | 26 kts | 25° |
| 2026-04-21 21:54 | 40.69691 | -74.16736 | 22 ft | 27 kts | 26° |
| 2026-04-21 21:55 | 40.69824 | -74.16653 | 21 ft | 20 kts | 26° |
| 2026-04-21 21:55 | 40.69943 | -74.16577 | 22 ft | 19 kts | 25° |
| 2026-04-21 21:55 | 40.70045 | -74.16513 | 21 ft | 8 kts | 25° |
| 2026-04-21 21:55 | 40.70063 | -74.16443 | 20 ft | 10 kts | 96° |
| 2026-04-21 21:56 | 40.70055 | -74.16362 | 20 ft | 3 kts | 112° |
| 2026-04-21 21:56 | 40.70030 | -74.16362 | 22 ft | 5 kts | 201° |
| 2026-04-21 21:56 | 40.69907 | -74.16441 | 19 ft | 49 kts | 205° |
| 2026-04-21 21:56 | 40.69401 | -74.16761 | 25 ft | 109 kts | 206° |
| 2026-04-21 21:57 | 40.68581 | -74.17280 | 25 ft | 152 kts | 205° |
| 2026-04-21 21:57 | 40.67553 | -74.17959 | 329 ft | 169 kts | 202° |
| 2026-04-21 21:57 | 40.66437 | -74.18361 | 993 ft | 165 kts | 182° |
| 2026-04-21 21:57 | 40.65304 | -74.18554 | 1637 ft | 167 kts | 195° |
| 2026-04-21 21:58 | 40.64189 | -74.19226 | 1949 ft | 188 kts | 206° |
| 2026-04-21 21:58 | 40.62975 | -74.20109 | 2149 ft | 212 kts | 207° |
| 2026-04-21 21:58 | 40.61606 | -74.21095 | 2421 ft | 238 kts | 208° |
| 2026-04-21 21:58 | 40.60098 | -74.22155 | 2501 ft | 249 kts | 207° |
| 2026-04-21 21:59 | 40.58558 | -74.23224 | 2509 ft | 250 kts | 207° |
| 2026-04-21 21:59 | 40.57020 | -74.24293 | 2509 ft | 251 kts | 207° |
| 2026-04-21 21:59 | 40.55519 | -74.25459 | 2510 ft | 251 kts | 220° |
| 2026-04-21 21:59 | 40.54543 | -74.27343 | 2702 ft | 256 kts | 254° |
| 2026-04-21 22:00 | 40.54400 | -74.28876 | 3263 ft | 257 kts | 274° |
| 2026-04-21 22:00 | 40.54926 | -74.31115 | 4132 ft | 260 kts | 301° |
| 2026-04-21 22:00 | 40.55978 | -74.33054 | 5050 ft | 261 kts | 307° |
| 2026-04-21 22:00 | 40.57100 | -74.34915 | 5969 ft | 259 kts | 308° |
| 2026-04-21 22:01 | 40.58224 | -74.36763 | 6860 ft | 258 kts | 308° |
| 2026-04-21 22:01 | 40.59298 | -74.38527 | 8116 ft | 236 kts | 307° |
| 2026-04-21 22:01 | 40.60316 | -74.40198 | 9040 ft | 233 kts | 308° |
| 2026-04-21 22:01 | 40.61332 | -74.41871 | 9725 ft | 237 kts | 308° |
| 2026-04-21 22:02 | 40.62402 | -74.43655 | 9936 ft | 258 kts | 308° |
| 2026-04-21 22:02 | 40.63516 | -74.45541 | 9989 ft | 264 kts | 307° |
| 2026-04-21 22:02 | 40.64705 | -74.47565 | 9987 ft | 294 kts | 308° |
| 2026-04-21 22:02 | 40.66003 | -74.49768 | 9985 ft | 317 kts | 308° |
| 2026-04-21 22:03 | 40.67395 | -74.52126 | 9979 ft | 326 kts | 308° |
| 2026-04-21 22:03 | 40.68803 | -74.54509 | 9978 ft | 340 kts | 308° |
| 2026-04-21 22:03 | 40.70280 | -74.57007 | 9975 ft | 349 kts | 308° |
| 2026-04-21 22:03 | 40.71781 | -74.59544 | 9973 ft | 352 kts | 307° |
| 2026-04-21 22:04 | 40.73023 | -74.62333 | 10409 ft | 353 kts | 291° |
| 2026-04-21 22:04 | 40.73629 | -74.65444 | 11323 ft | 350 kts | 284° |
| 2026-04-21 22:04 | 40.74109 | -74.68568 | 12126 ft | 346 kts | 284° |
| 2026-04-21 22:04 | 40.74569 | -74.71676 | 12850 ft | 345 kts | 284° |
| 2026-04-21 22:05 | 40.75017 | -74.74786 | 13482 ft | 346 kts | 284° |
| 2026-04-21 22:05 | 40.75463 | -74.77922 | 14099 ft | 348 kts | 284° |
| 2026-04-21 22:05 | 40.75908 | -74.81080 | 14705 ft | 351 kts | 284° |
| 2026-04-21 22:05 | 40.76355 | -74.84258 | 15278 ft | 354 kts | 285° |
| 2026-04-21 22:06 | 40.76809 | -74.87462 | 15837 ft | 356 kts | 285° |
| 2026-04-21 22:06 | 40.77267 | -74.90684 | 16390 ft | 359 kts | 284° |
| 2026-04-21 22:06 | 40.77732 | -74.93932 | 16945 ft | 361 kts | 285° |
| 2026-04-21 22:06 | 40.78198 | -74.97201 | 17496 ft | 364 kts | 285° |
| 2026-04-21 22:07 | 40.78661 | -75.00495 | 18037 ft | 366 kts | 285° |
| 2026-04-21 22:07 | 40.79124 | -75.03816 | 18556 ft | 369 kts | 285° |
| 2026-04-21 22:07 | 40.79590 | -75.07154 | 19055 ft | 372 kts | 285° |
| 2026-04-21 22:07 | 40.80001 | -75.10536 | 19574 ft | 377 kts | 280° |
| 2026-04-21 22:08 | 40.80007 | -75.14033 | 20047 ft | 386 kts | 270° |
| 2026-04-21 22:08 | 40.79563 | -75.17570 | 20491 ft | 394 kts | 265° |
| 2026-04-21 22:08 | 40.79033 | -75.21127 | 20936 ft | 396 kts | 265° |
| 2026-04-21 22:08 | 40.78506 | -75.24706 | 21329 ft | 399 kts | 265° |
| 2026-04-21 22:09 | 40.77979 | -75.28306 | 21712 ft | 401 kts | 265° |
| 2026-04-21 22:09 | 40.77452 | -75.31926 | 22078 ft | 403 kts | 266° |
| 2026-04-21 22:09 | 40.76921 | -75.35574 | 22421 ft | 407 kts | 265° |
| 2026-04-21 22:09 | 40.76127 | -75.39201 | 22754 ft | 417 kts | 256° |
| 2026-04-21 22:10 | 40.74907 | -75.42715 | 23077 ft | 425 kts | 251° |
| 2026-04-21 22:10 | 40.73599 | -75.46217 | 23403 ft | 427 kts | 251° |
| 2026-04-21 22:10 | 40.72281 | -75.49735 | 23704 ft | 429 kts | 251° |
| 2026-04-21 22:10 | 40.70954 | -75.53274 | 24008 ft | 432 kts | 251° |
| 2026-04-21 22:11 | 40.69621 | -75.56830 | 24305 ft | 434 kts | 251° |
| 2026-04-21 22:11 | 40.68282 | -75.60402 | 24613 ft | 436 kts | 251° |
| 2026-04-21 22:11 | 40.66937 | -75.63995 | 24921 ft | 438 kts | 251° |
| 2026-04-21 22:11 | 40.65587 | -75.67595 | 25300 ft | 438 kts | 251° |
| 2026-04-21 22:12 | 40.64237 | -75.71178 | 25732 ft | 436 kts | 251° |
| 2026-04-21 22:12 | 40.62887 | -75.74751 | 26180 ft | 435 kts | 251° |
| 2026-04-21 22:12 | 40.61541 | -75.78313 | 26594 ft | 434 kts | 251° |
| 2026-04-21 22:12 | 40.60196 | -75.81870 | 27004 ft | 434 kts | 251° |
| 2026-04-21 22:13 | 40.58852 | -75.85414 | 27441 ft | 432 kts | 251° |
| 2026-04-21 22:13 | 40.57509 | -75.88958 | 27884 ft | 431 kts | 251° |
| 2026-04-21 22:13 | 40.56177 | -75.92475 | 28304 ft | 430 kts | 251° |
| 2026-04-21 22:13 | 40.54845 | -75.95985 | 28725 ft | 429 kts | 251° |
| 2026-04-21 22:14 | 40.53511 | -75.99485 | 29139 ft | 428 kts | 251° |
| 2026-04-21 22:14 | 40.52177 | -76.02974 | 29549 ft | 426 kts | 251° |
| 2026-04-21 22:14 | 40.50850 | -76.06444 | 29993 ft | 425 kts | 251° |
| 2026-04-21 22:14 | 40.49526 | -76.09905 | 30403 ft | 423 kts | 251° |
| 2026-04-21 22:15 | 40.48204 | -76.13356 | 30790 ft | 422 kts | 251° |
| 2026-04-21 22:15 | 40.46899 | -76.16759 | 31147 ft | 422 kts | 251° |
| 2026-04-21 22:15 | 40.45578 | -76.20202 | 31522 ft | 422 kts | 251° |
| 2026-04-21 22:15 | 40.44242 | -76.23680 | 31908 ft | 421 kts | 251° |
| 2026-04-21 22:16 | 40.42923 | -76.27113 | 32293 ft | 421 kts | 251° |
| 2026-04-21 22:16 | 40.41626 | -76.30489 | 32645 ft | 420 kts | 251° |
| 2026-04-21 22:16 | 40.40307 | -76.33912 | 33004 ft | 420 kts | 251° |
| 2026-04-21 22:16 | 40.38989 | -76.37329 | 33363 ft | 419 kts | 251° |
| 2026-04-21 22:17 | 40.37674 | -76.40738 | 33707 ft | 419 kts | 251° |
| 2026-04-21 22:17 | 40.36355 | -76.44150 | 34029 ft | 419 kts | 251° |
| 2026-04-21 22:17 | 40.35035 | -76.47551 | 34361 ft | 418 kts | 251° |
| 2026-04-21 22:17 | 40.33714 | -76.50942 | 34670 ft | 418 kts | 250° |
| 2026-04-21 22:18 | 40.32377 | -76.54321 | 34984 ft | 417 kts | 250° |
| 2026-04-21 22:18 | 40.31028 | -76.57693 | 35284 ft | 417 kts | 250° |
| 2026-04-21 22:18 | 40.29677 | -76.61048 | 35552 ft | 416 kts | 250° |
| 2026-04-21 22:18 | 40.28325 | -76.64400 | 35827 ft | 416 kts | 250° |
| 2026-04-21 22:19 | 40.26971 | -76.67750 | 36086 ft | 416 kts | 249° |
| 2026-04-21 22:19 | 40.25620 | -76.71100 | 36199 ft | 417 kts | 249° |
| 2026-04-21 22:19 | 40.24268 | -76.74478 | 36221 ft | 422 kts | 250° |
| 2026-04-21 22:20 | 40.21509 | -76.81381 | 36222 ft | 434 kts | 249° |
| 2026-04-21 22:20 | 40.18672 | -76.88422 | 36220 ft | 440 kts | 249° |
| 2026-04-21 22:21 | 40.15787 | -76.95514 | 36220 ft | 441 kts | 249° |
| 2026-04-21 22:21 | 40.12903 | -77.02601 | 36220 ft | 441 kts | 249° |
| 2026-04-21 22:22 | 40.10021 | -77.09687 | 36219 ft | 441 kts | 249° |
| 2026-04-21 22:22 | 40.07141 | -77.16759 | 36224 ft | 441 kts | 248° |
| 2026-04-21 22:23 | 40.04250 | -77.23833 | 36224 ft | 442 kts | 248° |
| 2026-04-21 22:23 | 40.01364 | -77.30898 | 36230 ft | 442 kts | 248° |
| 2026-04-21 22:24 | 39.98461 | -77.37969 | 36232 ft | 442 kts | 248° |
| 2026-04-21 22:24 | 39.96216 | -77.45282 | 36228 ft | 428 kts | 263° |
| 2026-04-21 22:25 | 39.95817 | -77.52889 | 36224 ft | 418 kts | 277° |
| 2026-04-21 22:25 | 39.96077 | -77.60418 | 36218 ft | 419 kts | 277° |
| 2026-04-21 22:26 | 39.96316 | -77.68054 | 36213 ft | 419 kts | 276° |
| 2026-04-21 22:26 | 39.96543 | -77.75607 | 36208 ft | 419 kts | 276° |
| 2026-04-21 22:27 | 39.96764 | -77.83197 | 36204 ft | 419 kts | 276° |
| 2026-04-21 22:27 | 39.96983 | -77.90786 | 36199 ft | 419 kts | 276° |
| 2026-04-21 22:28 | 39.97200 | -77.98382 | 36196 ft | 419 kts | 276° |
| 2026-04-21 22:28 | 39.97402 | -78.05974 | 36195 ft | 419 kts | 276° |
| 2026-04-21 22:29 | 39.97607 | -78.13572 | 36194 ft | 419 kts | 276° |
| 2026-04-21 22:29 | 39.97818 | -78.21172 | 36192 ft | 419 kts | 276° |
| 2026-04-21 22:30 | 39.98013 | -78.28768 | 36179 ft | 420 kts | 276° |
| 2026-04-21 22:30 | 39.98201 | -78.36368 | 36178 ft | 419 kts | 276° |
| 2026-04-21 22:31 | 39.98383 | -78.43968 | 36173 ft | 420 kts | 276° |
| 2026-04-21 22:31 | 39.98570 | -78.51572 | 36168 ft | 419 kts | 276° |
| 2026-04-21 22:32 | 39.98749 | -78.59164 | 36161 ft | 419 kts | 276° |
| 2026-04-21 22:32 | 39.98920 | -78.66769 | 36159 ft | 420 kts | 275° |
| 2026-04-21 22:33 | 39.99084 | -78.74369 | 36161 ft | 419 kts | 275° |
| 2026-04-21 22:33 | 39.99246 | -78.81969 | 36163 ft | 420 kts | 275° |
| 2026-04-21 22:34 | 39.99404 | -78.89575 | 36163 ft | 420 kts | 275° |
| 2026-04-21 22:34 | 39.99557 | -78.97189 | 36160 ft | 420 kts | 275° |
| 2026-04-21 22:35 | 39.99703 | -79.04799 | 36159 ft | 420 kts | 275° |
| 2026-04-21 22:35 | 39.99843 | -79.12403 | 36156 ft | 420 kts | 275° |
| 2026-04-21 22:36 | 40.00051 | -79.23819 | 36158 ft | 420 kts | 274° |
| 2026-04-21 22:36 | 40.00184 | -79.31421 | 36158 ft | 419 kts | 274° |
| 2026-04-21 22:37 | 40.00304 | -79.39026 | 36157 ft | 420 kts | 274° |
| 2026-04-21 22:37 | 40.00423 | -79.46640 | 36156 ft | 420 kts | 274° |
| 2026-04-21 22:38 | 40.00540 | -79.54256 | 36152 ft | 421 kts | 274° |
| 2026-04-21 22:38 | 40.00650 | -79.61891 | 36148 ft | 421 kts | 274° |
| 2026-04-21 22:39 | 40.00749 | -79.69531 | 36147 ft | 422 kts | 274° |
| 2026-04-21 22:39 | 40.00845 | -79.77173 | 36140 ft | 422 kts | 274° |
| 2026-04-21 22:40 | 40.00942 | -79.84817 | 36138 ft | 422 kts | 273° |
| 2026-04-21 22:40 | 40.01018 | -79.91227 | 36144 ft | 422 kts | 273° |
| 2026-04-21 22:41 | 40.01102 | -79.98881 | 36143 ft | 422 kts | 273° |
| 2026-04-21 22:41 | 40.01184 | -80.06487 | 36143 ft | 422 kts | 273° |
| 2026-04-21 22:42 | 40.01260 | -80.14190 | 36142 ft | 422 kts | 273° |
| 2026-04-21 22:42 | 40.01330 | -80.21845 | 36143 ft | 422 kts | 273° |
| 2026-04-21 22:43 | 40.01396 | -80.29501 | 36149 ft | 422 kts | 273° |
| 2026-04-21 22:43 | 40.01454 | -80.37108 | 36146 ft | 422 kts | 273° |
| 2026-04-21 22:44 | 40.01511 | -80.44759 | 36145 ft | 422 kts | 273° |
| 2026-04-21 22:44 | 40.01563 | -80.52409 | 36139 ft | 422 kts | 273° |
| 2026-04-21 22:45 | 40.01606 | -80.60067 | 36133 ft | 422 kts | 273° |
| 2026-04-21 22:45 | 40.01641 | -80.67720 | 36124 ft | 422 kts | 272° |
| 2026-04-21 22:46 | 40.01680 | -80.75368 | 36117 ft | 421 kts | 273° |
| 2026-04-21 22:46 | 40.01711 | -80.83018 | 36115 ft | 421 kts | 272° |
| 2026-04-21 22:47 | 40.01638 | -80.90661 | 36108 ft | 421 kts | 271° |
| 2026-04-21 22:47 | 40.01504 | -80.98301 | 36113 ft | 421 kts | 271° |
| 2026-04-21 22:48 | 40.01374 | -81.05937 | 36109 ft | 421 kts | 271° |
| 2026-04-21 22:48 | 40.01259 | -81.13563 | 36105 ft | 420 kts | 271° |
| 2026-04-21 22:49 | 40.01141 | -81.21181 | 36109 ft | 420 kts | 271° |
| 2026-04-21 22:49 | 40.01018 | -81.28801 | 36102 ft | 420 kts | 271° |
| 2026-04-21 22:50 | 40.00871 | -81.36410 | 36098 ft | 419 kts | 271° |
| 2026-04-21 22:50 | 40.00714 | -81.44007 | 36099 ft | 419 kts | 271° |
| 2026-04-21 22:51 | 40.00552 | -81.51594 | 36097 ft | 418 kts | 271° |
| 2026-04-21 22:51 | 40.00396 | -81.59172 | 36096 ft | 418 kts | 271° |
| 2026-04-21 22:52 | 40.00248 | -81.66746 | 36094 ft | 418 kts | 271° |
| 2026-04-21 22:52 | 40.00094 | -81.74268 | 36094 ft | 417 kts | 271° |
| 2026-04-21 22:53 | 39.99926 | -81.81833 | 36095 ft | 417 kts | 271° |
| 2026-04-21 22:53 | 39.99751 | -81.89381 | 36096 ft | 417 kts | 271° |
| 2026-04-21 22:54 | 39.99581 | -81.96956 | 36093 ft | 417 kts | 271° |
| 2026-04-21 22:54 | 39.99406 | -82.04511 | 36093 ft | 416 kts | 271° |
| 2026-04-21 22:55 | 39.99227 | -82.12051 | 36088 ft | 416 kts | 270° |
| 2026-04-21 22:55 | 39.99039 | -82.19595 | 36086 ft | 416 kts | 271° |
| 2026-04-21 22:56 | 39.98843 | -82.27141 | 36086 ft | 417 kts | 270° |
| 2026-04-21 22:56 | 39.98640 | -82.34691 | 36085 ft | 417 kts | 270° |
| 2026-04-21 22:57 | 39.98429 | -82.42237 | 36080 ft | 417 kts | 270° |
| 2026-04-21 22:57 | 39.98215 | -82.49780 | 36078 ft | 416 kts | 270° |
| 2026-04-21 22:58 | 39.98005 | -82.57323 | 36076 ft | 416 kts | 270° |
| 2026-04-21 22:58 | 39.97792 | -82.64854 | 36075 ft | 416 kts | 270° |
| 2026-04-21 22:59 | 39.97574 | -82.72385 | 36075 ft | 415 kts | 270° |
| 2026-04-21 22:59 | 39.97351 | -82.79907 | 36077 ft | 415 kts | 270° |
| 2026-04-21 23:00 | 39.97117 | -82.87422 | 36077 ft | 415 kts | 270° |
| 2026-04-21 23:00 | 39.96880 | -82.94939 | 36077 ft | 414 kts | 270° |
| 2026-04-21 23:01 | 39.96636 | -83.02446 | 36082 ft | 414 kts | 270° |
| 2026-04-21 23:01 | 39.96447 | -83.09941 | 36085 ft | 413 kts | 271° |
| 2026-04-21 23:02 | 39.96330 | -83.17422 | 36090 ft | 413 kts | 271° |
| 2026-04-21 23:02 | 39.96165 | -83.24912 | 36092 ft | 413 kts | 270° |
| 2026-04-21 23:03 | 39.95899 | -83.32385 | 36090 ft | 413 kts | 269° |
| 2026-04-21 23:03 | 39.95621 | -83.39857 | 36090 ft | 413 kts | 270° |
| 2026-04-21 23:04 | 39.95351 | -83.47318 | 36095 ft | 412 kts | 269° |
| 2026-04-21 23:04 | 39.95082 | -83.54783 | 36098 ft | 412 kts | 270° |
| 2026-04-21 23:05 | 39.94815 | -83.62257 | 36096 ft | 413 kts | 269° |
| 2026-04-21 23:05 | 39.94535 | -83.69729 | 36088 ft | 413 kts | 269° |
| 2026-04-21 23:06 | 39.94254 | -83.77199 | 36080 ft | 413 kts | 269° |
| 2026-04-21 23:06 | 39.93969 | -83.84680 | 36077 ft | 414 kts | 269° |
| 2026-04-21 23:07 | 39.93675 | -83.92172 | 36076 ft | 413 kts | 269° |
| 2026-04-21 23:07 | 39.93382 | -83.99607 | 36070 ft | 413 kts | 269° |
| 2026-04-21 23:08 | 39.93080 | -84.07132 | 36068 ft | 413 kts | 269° |
| 2026-04-21 23:08 | 39.92778 | -84.14593 | 36065 ft | 413 kts | 269° |
| 2026-04-21 23:09 | 39.92468 | -84.22058 | 36065 ft | 413 kts | 269° |
| 2026-04-21 23:09 | 39.92149 | -84.29529 | 36064 ft | 413 kts | 269° |
| 2026-04-21 23:10 | 39.91825 | -84.37000 | 36066 ft | 413 kts | 269° |
| 2026-04-21 23:10 | 39.91502 | -84.44476 | 36070 ft | 413 kts | 269° |
| 2026-04-21 23:11 | 39.91172 | -84.51952 | 36070 ft | 414 kts | 269° |
| 2026-04-21 23:11 | 39.90837 | -84.59434 | 36074 ft | 414 kts | 269° |
| 2026-04-21 23:12 | 39.90498 | -84.66914 | 36077 ft | 413 kts | 269° |
| 2026-04-21 23:12 | 39.90152 | -84.74383 | 36078 ft | 413 kts | 269° |
| 2026-04-21 23:13 | 39.89805 | -84.81853 | 36080 ft | 413 kts | 269° |
| 2026-04-21 23:13 | 39.89452 | -84.89308 | 36081 ft | 413 kts | 269° |
| 2026-04-21 23:14 | 39.89094 | -84.96775 | 36083 ft | 413 kts | 268° |
| 2026-04-21 23:14 | 39.88728 | -85.04255 | 36079 ft | 414 kts | 268° |
| 2026-04-21 23:15 | 39.88362 | -85.11735 | 36072 ft | 414 kts | 268° |
| 2026-04-21 23:15 | 39.87986 | -85.19224 | 36069 ft | 415 kts | 268° |
| 2026-04-21 23:16 | 39.87604 | -85.26720 | 36063 ft | 415 kts | 268° |
| 2026-04-21 23:16 | 39.87223 | -85.34173 | 36055 ft | 415 kts | 268° |
| 2026-04-21 23:17 | 39.86832 | -85.41670 | 36054 ft | 415 kts | 268° |
| 2026-04-21 23:17 | 39.86443 | -85.49171 | 36058 ft | 415 kts | 268° |
| 2026-04-21 23:18 | 39.86048 | -85.56664 | 36050 ft | 415 kts | 268° |
| 2026-04-21 23:18 | 39.85642 | -85.64160 | 36048 ft | 415 kts | 268° |
| 2026-04-21 23:19 | 39.85226 | -85.71655 | 36049 ft | 416 kts | 268° |
| 2026-04-21 23:19 | 39.84805 | -85.79161 | 36051 ft | 416 kts | 268° |
| 2026-04-21 23:20 | 39.84459 | -85.85458 | 36049 ft | 416 kts | 268° |
| 2026-04-21 23:20 | 39.84036 | -85.92966 | 36049 ft | 416 kts | 268° |
| 2026-04-21 23:21 | 39.83606 | -86.00485 | 36050 ft | 417 kts | 268° |
| 2026-04-21 23:21 | 39.83169 | -86.07992 | 36053 ft | 417 kts | 267° |
| 2026-04-21 23:22 | 39.82733 | -86.15525 | 36052 ft | 417 kts | 267° |
| 2026-04-21 23:22 | 39.82288 | -86.23048 | 36051 ft | 417 kts | 267° |
| 2026-04-21 23:23 | 39.81839 | -86.30568 | 36049 ft | 417 kts | 267° |
| 2026-04-21 23:23 | 39.81133 | -86.38055 | 36047 ft | 420 kts | 257° |
| 2026-04-21 23:24 | 39.79384 | -86.45324 | 36046 ft | 421 kts | 255° |
| 2026-04-21 23:24 | 39.77599 | -86.52586 | 36049 ft | 422 kts | 255° |
| 2026-04-21 23:25 | 39.75822 | -86.59849 | 36050 ft | 422 kts | 255° |
| 2026-04-21 23:25 | 39.74047 | -86.67068 | 36052 ft | 422 kts | 255° |
| 2026-04-21 23:26 | 39.72239 | -86.74387 | 36055 ft | 423 kts | 255° |
| 2026-04-21 23:26 | 39.70438 | -86.81657 | 36064 ft | 423 kts | 255° |
| 2026-04-21 23:27 | 39.68636 | -86.88927 | 36064 ft | 423 kts | 255° |
| 2026-04-21 23:27 | 39.66833 | -86.96202 | 36067 ft | 423 kts | 255° |
| 2026-04-21 23:28 | 39.65010 | -87.03471 | 36065 ft | 424 kts | 255° |
| 2026-04-21 23:28 | 39.63191 | -87.10696 | 36064 ft | 424 kts | 255° |
| 2026-04-21 23:29 | 39.61359 | -87.17975 | 36063 ft | 425 kts | 255° |
| 2026-04-21 23:29 | 39.59512 | -87.25302 | 36065 ft | 425 kts | 255° |
| 2026-04-21 23:30 | 39.57690 | -87.32537 | 36061 ft | 425 kts | 255° |
| 2026-04-21 23:30 | 39.55834 | -87.39864 | 36058 ft | 425 kts | 255° |
| 2026-04-21 23:31 | 39.53988 | -87.47101 | 36057 ft | 426 kts | 254° |
| 2026-04-21 23:31 | 39.52115 | -87.54424 | 36062 ft | 426 kts | 254° |
| 2026-04-21 23:32 | 39.50256 | -87.61707 | 36057 ft | 426 kts | 255° |
| 2026-04-21 23:32 | 39.48407 | -87.68940 | 36060 ft | 426 kts | 254° |
| 2026-04-21 23:33 | 39.46525 | -87.76226 | 36057 ft | 427 kts | 254° |
| 2026-04-21 23:33 | 39.44643 | -87.83507 | 36067 ft | 427 kts | 254° |
| 2026-04-21 23:34 | 39.42757 | -87.90799 | 36067 ft | 427 kts | 254° |
| 2026-04-21 23:34 | 39.40864 | -87.98094 | 36068 ft | 427 kts | 254° |
| 2026-04-21 23:35 | 39.38965 | -88.05377 | 36070 ft | 427 kts | 254° |
| 2026-04-21 23:35 | 39.37119 | -88.12674 | 36068 ft | 427 kts | 255° |
| 2026-04-21 23:36 | 39.35315 | -88.19988 | 36060 ft | 427 kts | 255° |
| 2026-04-21 23:36 | 39.34400 | -88.23649 | 35874 ft | 428 kts | 255° |
| 2026-04-21 23:36 | 39.33456 | -88.27291 | 35307 ft | 428 kts | 254° |
| 2026-04-21 23:37 | 39.32486 | -88.30932 | 34511 ft | 429 kts | 254° |
| 2026-04-21 23:37 | 39.31501 | -88.34580 | 33692 ft | 430 kts | 254° |
| 2026-04-21 23:37 | 39.30511 | -88.38239 | 32785 ft | 433 kts | 254° |
| 2026-04-21 23:37 | 39.29517 | -88.41922 | 31865 ft | 435 kts | 254° |
| 2026-04-21 23:38 | 39.28524 | -88.45618 | 30990 ft | 436 kts | 254° |
| 2026-04-21 23:38 | 39.27536 | -88.49309 | 30048 ft | 437 kts | 254° |
| 2026-04-21 23:38 | 39.26539 | -88.53036 | 28980 ft | 441 kts | 254° |
| 2026-04-21 23:38 | 39.25538 | -88.56763 | 28294 ft | 436 kts | 254° |
| 2026-04-21 23:39 | 39.24551 | -88.60427 | 27699 ft | 429 kts | 253° |
| 2026-04-21 23:39 | 39.23576 | -88.64044 | 27053 ft | 425 kts | 254° |
| 2026-04-21 23:39 | 39.22611 | -88.67619 | 26410 ft | 420 kts | 253° |
| 2026-04-21 23:39 | 39.21652 | -88.71157 | 25788 ft | 416 kts | 253° |
| 2026-04-21 23:40 | 39.20704 | -88.74651 | 25170 ft | 411 kts | 253° |
| 2026-04-21 23:40 | 39.19765 | -88.78112 | 24555 ft | 407 kts | 253° |
| 2026-04-21 23:40 | 39.18835 | -88.81539 | 23946 ft | 403 kts | 253° |
| 2026-04-21 23:40 | 39.17919 | -88.84912 | 23708 ft | 390 kts | 253° |
| 2026-04-21 23:41 | 39.17048 | -88.88107 | 23414 ft | 375 kts | 253° |
| 2026-04-21 23:41 | 39.16194 | -88.91242 | 22969 ft | 368 kts | 253° |
| 2026-04-21 23:41 | 39.15345 | -88.94359 | 22422 ft | 371 kts | 253° |
| 2026-04-21 23:41 | 39.14494 | -88.97482 | 22042 ft | 367 kts | 253° |
| 2026-04-21 23:42 | 39.13645 | -89.00589 | 21502 ft | 367 kts | 253° |
| 2026-04-21 23:42 | 39.12806 | -89.03663 | 21056 ft | 359 kts | 253° |
| 2026-04-21 23:42 | 39.11980 | -89.06686 | 20296 ft | 359 kts | 253° |
| 2026-04-21 23:42 | 39.11153 | -89.09713 | 19796 ft | 357 kts | 253° |
| 2026-04-21 23:43 | 39.10330 | -89.12713 | 19366 ft | 353 kts | 253° |
| 2026-04-21 23:43 | 39.09509 | -89.15694 | 18806 ft | 353 kts | 253° |
| 2026-04-21 23:43 | 39.08736 | -89.18665 | 18329 ft | 344 kts | 255° |
| 2026-04-21 23:43 | 39.08054 | -89.21600 | 17587 ft | 342 kts | 256° |
| 2026-04-21 23:44 | 39.07415 | -89.24538 | 17096 ft | 339 kts | 256° |
| 2026-04-21 23:44 | 39.06801 | -89.27425 | 16593 ft | 332 kts | 256° |
| 2026-04-21 23:44 | 39.06193 | -89.30268 | 15999 ft | 327 kts | 256° |
| 2026-04-21 23:44 | 39.05584 | -89.33068 | 15382 ft | 325 kts | 256° |
| 2026-04-21 23:45 | 39.04965 | -89.35867 | 14892 ft | 324 kts | 256° |
| 2026-04-21 23:45 | 39.03732 | -89.41350 | 13660 ft | 315 kts | 255° |
| 2026-04-21 23:45 | 39.03120 | -89.44034 | 12893 ft | 311 kts | 255° |
| 2026-04-21 23:46 | 39.02511 | -89.46697 | 12218 ft | 308 kts | 255° |
| 2026-04-21 23:46 | 39.01908 | -89.49331 | 11549 ft | 308 kts | 255° |
| 2026-04-21 23:46 | 39.01309 | -89.51958 | 11169 ft | 305 kts | 255° |
| 2026-04-21 23:46 | 39.00723 | -89.54567 | 11002 ft | 303 kts | 255° |
| 2026-04-21 23:47 | 39.00123 | -89.57169 | 11005 ft | 304 kts | 251° |
| 2026-04-21 23:47 | 38.99220 | -89.59599 | 10528 ft | 300 kts | 239° |
| 2026-04-21 23:47 | 38.97884 | -89.61658 | 9865 ft | 302 kts | 226° |
| 2026-04-21 23:47 | 38.96420 | -89.63434 | 9823 ft | 277 kts | 227° |
| 2026-04-21 23:48 | 38.95071 | -89.65114 | 9451 ft | 267 kts | 227° |
| 2026-04-21 23:48 | 38.93761 | -89.66773 | 9063 ft | 262 kts | 227° |
| 2026-04-21 23:48 | 38.92468 | -89.68425 | 9003 ft | 263 kts | 228° |
| 2026-04-21 23:48 | 38.91172 | -89.70079 | 8948 ft | 261 kts | 227° |
| 2026-04-21 23:49 | 38.89885 | -89.71716 | 8618 ft | 261 kts | 227° |
| 2026-04-21 23:49 | 38.88598 | -89.73350 | 8297 ft | 259 kts | 227° |
| 2026-04-21 23:49 | 38.87319 | -89.74967 | 8068 ft | 257 kts | 227° |
| 2026-04-21 23:49 | 38.86043 | -89.76576 | 8007 ft | 257 kts | 227° |
| 2026-04-21 23:50 | 38.84768 | -89.78186 | 8008 ft | 257 kts | 227° |
| 2026-04-21 23:50 | 38.83492 | -89.79797 | 8007 ft | 258 kts | 227° |
| 2026-04-21 23:50 | 38.82212 | -89.81412 | 8013 ft | 258 kts | 227° |
| 2026-04-21 23:50 | 38.80940 | -89.83013 | 7743 ft | 256 kts | 227° |
| 2026-04-21 23:51 | 38.79676 | -89.84604 | 7392 ft | 254 kts | 227° |
| 2026-04-21 23:51 | 38.78418 | -89.86187 | 7095 ft | 253 kts | 227° |
| 2026-04-21 23:51 | 38.77167 | -89.87762 | 6783 ft | 251 kts | 226° |
| 2026-04-21 23:51 | 38.75931 | -89.89316 | 6438 ft | 248 kts | 226° |
| 2026-04-21 23:52 | 38.74709 | -89.90864 | 6090 ft | 247 kts | 226° |
| 2026-04-21 23:52 | 38.73498 | -89.92400 | 5719 ft | 244 kts | 226° |
| 2026-04-21 23:52 | 38.72291 | -89.93920 | 5299 ft | 243 kts | 226° |
| 2026-04-21 23:52 | 38.71088 | -89.95425 | 4867 ft | 241 kts | 225° |
| 2026-04-21 23:53 | 38.69883 | -89.96916 | 4414 ft | 241 kts | 224° |
| 2026-04-21 23:53 | 38.68669 | -89.98404 | 4099 ft | 241 kts | 224° |
| 2026-04-21 23:53 | 38.67462 | -89.99885 | 3984 ft | 241 kts | 224° |
| 2026-04-21 23:53 | 38.66455 | -90.01588 | 3918 ft | 242 kts | 245° |
| 2026-04-21 23:54 | 38.66167 | -90.03714 | 3617 ft | 245 kts | 265° |
| 2026-04-21 23:54 | 38.66187 | -90.05905 | 3273 ft | 246 kts | 268° |
| 2026-04-21 23:54 | 38.66245 | -90.08092 | 3009 ft | 244 kts | 267° |
| 2026-04-21 23:54 | 38.66331 | -90.10205 | 2988 ft | 231 kts | 268° |
| 2026-04-21 23:55 | 38.66425 | -90.12181 | 2990 ft | 215 kts | 268° |
| 2026-04-21 23:55 | 38.66522 | -90.14025 | 2994 ft | 208 kts | 268° |
| 2026-04-21 23:55 | 38.66610 | -90.15869 | 3001 ft | 208 kts | 268° |
| 2026-04-21 23:55 | 38.66697 | -90.17672 | 3002 ft | 195 kts | 268° |
| 2026-04-21 23:56 | 38.66822 | -90.19344 | 3000 ft | 185 kts | 276° |
| 2026-04-21 23:56 | 38.67368 | -90.20854 | 2928 ft | 189 kts | 295° |
| 2026-04-21 23:56 | 38.68072 | -90.22264 | 2731 ft | 186 kts | 296° |
| 2026-04-21 23:56 | 38.68755 | -90.23631 | 2486 ft | 175 kts | 295° |
| 2026-04-21 23:57 | 38.69367 | -90.24857 | 2273 ft | 155 kts | 294° |
| 2026-04-21 23:57 | 38.69928 | -90.25990 | 2067 ft | 147 kts | 294° |
| 2026-04-21 23:57 | 38.70471 | -90.27094 | 1875 ft | 145 kts | 295° |
| 2026-04-21 23:57 | 38.71009 | -90.28183 | 1694 ft | 144 kts | 297° |
| 2026-04-21 23:58 | 38.71541 | -90.29260 | 1499 ft | 143 kts | 297° |
| 2026-04-21 23:58 | 38.72072 | -90.30335 | 1311 ft | 143 kts | 297° |
| 2026-04-21 23:58 | 38.72604 | -90.31411 | 1113 ft | 143 kts | 297° |
| 2026-04-21 23:58 | 38.73132 | -90.32481 | 922 ft | 143 kts | 294° |
| 2026-04-21 23:59 | 38.73666 | -90.33563 | 742 ft | 143 kts | 297° |
| 2026-04-21 23:59 | 38.74189 | -90.34629 | 602 ft | 134 kts | 298° |
| 2026-04-21 23:59 | 38.74621 | -90.35506 | 576 ft | 83 kts | 302° |
| 2026-04-21 23:59 | 38.74799 | -90.35864 | 560 ft | 34 kts | 303° |
| 2026-04-22 00:00 | 38.74891 | -90.36058 | 562 ft | 14 kts | 279° |
| 2026-04-22 00:00 | 38.74831 | -90.36154 | 554 ft | 15 kts | 213° |
| 2026-04-22 00:00 | 38.74799 | -90.36180 | 555 ft | 0 kts | 211° |
| 2026-04-22 00:01 | 38.74796 | -90.36183 | 555 ft | 3 kts | 211° |
| 2026-04-22 00:01 | 38.74693 | -90.36265 | 566 ft | 18 kts | 212° |
| 2026-04-22 00:01 | 38.74592 | -90.36310 | 564 ft | 15 kts | 181° |
| 2026-04-22 00:01 | 38.74492 | -90.36315 | 566 ft | 13 kts | 187° |
| 2026-04-22 00:02 | 38.74431 | -90.36254 | 564 ft | 13 kts | 119° |
| 2026-04-22 00:02 | 38.74386 | -90.36163 | 567 ft | 11 kts | 129° |
| 2026-04-22 00:02 | 38.74324 | -90.36166 | 568 ft | 10 kts | 201° |
| 2026-04-22 00:02 | 38.74271 | -90.36206 | 567 ft | 7 kts | 222° |
| 2026-04-22 00:03 | 38.74258 | -90.36218 | 566 ft | 0 kts | 218° |